< < Back
Terminal Aerodrome Forecast


Current Version              Previous Versions:   1  2  3  4  5  6  7  8  9  

Terminal Aerodrome Forecast

962
FTUS42 KGSP 121720
TAFHKY
TAF
KHKY 121720Z 1218/1318 07003KT P6SM FEW035 SCT080 BKN100
      TEMPO 1218/1219 6SM -SN SCT035 OVC070
     FM122300 27007KT P6SM SCT050 BKN200
     FM130900 31010G17KT P6SM FEW250=



Latest METAR

680
SAUS70 KWBC 122000 RRH
MTRHKY
METAR KHKY 121953Z 19005KT 10SM SCT055 SCT080 03/M07 A2999 RMK AO2
SLP154 T00331072


USA.gov is the U.S. government's official web portal to all federal, state and local government web resources and services.